Time;durP1;ratioP1;P1;durP2;ratioP2;P2;SDS_P1;SDS_P2;PMS_P1;PMS_P2;Temp;Humidity;BMP_temperature;BMP_pressure;BME280_temperature;BME280_humidity;BME280_pressure;Samples;Min_cycle;Max_cycle;Signal;HPM_P1;HPM_P2
2023/01/24 00:00:10;;;;;;;22.60;8.70;;;;;;;0.05;100.00;102766.27;109081;1254;58812;-91
2023/01/24 00:02:59;;;;;;;25.20;8.40;;;;;;;0.07;100.00;102767.52;109254;1254;72375;-90
2023/01/24 00:05:48;;;;;;;20.80;8.60;;;;;;;0.09;100.00;102766.25;109202;1252;70697;-91
2023/01/24 00:08:37;;;;;;;16.20;7.60;;;;;;;0.15;100.00;102761.85;109137;1253;70431;-91
2023/01/24 00:11:26;;;;;;;14.10;6.40;;;;;;;0.26;100.00;102762.41;109260;1252;60720;-90
2023/01/24 00:14:15;;;;;;;18.40;8.00;;;;;;;0.30;100.00;102760.91;109297;1253;60474;-90
2023/01/24 00:17:07;;;;;;;17.90;7.90;;;;;;;0.28;100.00;102762.71;109357;1252;71280;-90
2023/01/24 00:19:56;;;;;;;19.70;6.70;;;;;;;0.32;100.00;102765.19;109396;1252;69557;-90
2023/01/24 00:22:45;;;;;;;15.40;7.20;;;;;;;0.29;100.00;102766.88;109472;1253;71651;-91
2023/01/24 00:25:34;;;;;;;15.20;7.50;;;;;;;0.23;100.00;102768.10;109065;1253;60307;-90
2023/01/24 00:28:26;;;;;;;14.80;6.30;;;;;;;0.25;100.00;102768.96;109370;1254;58061;-90
2023/01/24 00:31:15;;;;;;;12.90;6.50;;;;;;;0.17;100.00;102768.15;109270;1253;74074;-89
2023/01/24 00:34:04;;;;;;;16.50;6.30;;;;;;;0.11;100.00;102765.52;109480;1253;69993;-91
2023/01/24 00:36:53;;;;;;;16.10;6.80;;;;;;;0.05;100.00;102768.40;109332;1253;72711;-89
2023/01/24 00:39:42;;;;;;;16.40;6.90;;;;;;;0.16;100.00;102766.39;109334;1252;61038;-88
2023/01/24 00:42:32;;;;;;;11.00;5.60;;;;;;;0.29;100.00;102767.48;109243;1252;60976;-90
2023/01/24 00:45:21;;;;;;;16.50;7.40;;;;;;;0.31;100.00;102763.17;109357;1252;74279;-91
2023/01/24 00:48:11;;;;;;;18.70;6.40;;;;;;;0.32;100.00;102758.34;109188;1254;68818;-90
2023/01/24 00:51:05;;;;;;;14.00;5.90;;;;;;;0.28;100.00;102756.58;109154;1253;73608;-90
2023/01/24 00:53:53;;;;;;;16.80;6.30;;;;;;;0.21;100.00;102759.67;109290;1254;60189;-90
2023/01/24 00:56:42;;;;;;;14.00;6.40;;;;;;;0.21;100.00;102756.79;109359;1252;60637;-90
2023/01/24 00:59:31;;;;;;;17.80;6.90;;;;;;;0.08;100.00;102759.02;109245;1253;74954;-89
2023/01/24 01:02:20;;;;;;;16.30;7.80;;;;;;;0.12;100.00;102758.40;109494;1253;69936;-89
2023/01/24 01:05:09;;;;;;;12.50;6.10;;;;;;;0.04;100.00;102757.06;109277;1253;72949;-88
2023/01/24 01:07:58;;;;;;;14.80;6.50;;;;;;;0.09;100.00;102758.89;109381;1253;58354;-89
2023/01/24 01:10:48;;;;;;;17.20;7.20;;;;;;;-0.08;100.00;102760.19;109331;1253;60429;-90
2023/01/24 01:13:37;;;;;;;16.50;7.00;;;;;;;-0.18;100.00;102754.96;109492;1251;75034;-90
2023/01/24 01:16:26;;;;;;;16.10;7.10;;;;;;;-0.26;100.00;102762.67;109196;1253;66971;-90
2023/01/24 01:19:15;;;;;;;11.50;5.50;;;;;;;-0.23;100.00;102760.45;109308;1251;70693;-91
2023/01/24 01:22:04;;;;;;;15.20;6.90;;;;;;;-0.24;100.00;102758.16;109361;1255;62963;-89
2023/01/24 01:24:53;;;;;;;23.10;7.20;;;;;;;-0.27;100.00;102764.61;109464;1254;60384;-91
2023/01/24 01:27:41;;;;;;;16.80;6.70;;;;;;;-0.28;100.00;102755.77;109427;1253;74146;-90
2023/01/24 01:30:30;;;;;;;17.20;7.30;;;;;;;-0.24;100.00;102759.27;109318;1251;70383;-90
2023/01/24 01:33:19;;;;;;;16.30;7.20;;;;;;;-0.30;100.00;102755.09;109299;1254;73257;-90
2023/01/24 01:36:08;;;;;;;20.80;7.30;;;;;;;-0.30;100.00;102752.58;109382;1251;60010;-91
2023/01/24 01:38:58;;;;;;;17.20;7.00;;;;;;;-0.32;100.00;102750.60;109291;1253;61778;-89
2023/01/24 01:41:48;;;;;;;14.20;6.60;;;;;;;-0.28;100.00;102750.42;109334;1253;73041;-91
2023/01/24 01:44:41;;;;;;;19.00;7.30;;;;;;;-0.42;100.00;102748.70;109417;1252;69981;-90
2023/01/24 01:47:34;;;;;;;18.10;7.90;;;;;;;-0.40;100.00;102747.98;109379;1251;73395;-91
2023/01/24 01:50:28;;;;;;;19.20;7.00;;;;;;;-0.41;100.00;102746.11;109293;1252;59534;-91
2023/01/24 01:53:17;;;;;;;19.50;7.30;;;;;;;-0.53;100.00;102747.11;109352;1251;60330;-89
2023/01/24 01:56:25;;;;;;;17.90;5.60;;;;;;;-0.57;100.00;102750.88;109359;1254;73646;-90
2023/01/24 01:59:26;;;;;;;18.20;8.00;;;;;;;-0.54;100.00;102749.92;109394;1254;68927;-90
2023/01/24 02:02:15;;;;;;;17.50;6.80;;;;;;;-0.53;100.00;102751.23;109314;1253;72348;-91
2023/01/24 02:05:06;;;;;;;22.40;7.60;;;;;;;-0.50;100.00;102749.67;109324;1251;59601;-90
2023/01/24 02:07:57;;;;;;;17.80;6.60;;;;;;;-0.43;100.00;102745.05;109339;1256;60827;-90
2023/01/24 02:16:02;;;;;;;18.50;8.60;;;;;;;-0.29;100.00;102744.70;109387;1253;68577;-90
2023/01/24 02:17:04;;;;;;;24.20;8.70;;;;;;;-0.27;100.00;102752.45;109457;1253;72583;-89
2023/01/24 02:20:02;;;;;;;16.60;7.10;;;;;;;-0.31;100.00;102750.11;109420;1251;58544;-90
2023/01/24 02:23:22;;;;;;;16.00;7.40;;;;;;;-0.35;100.00;102751.48;109437;1251;61261;-89
2023/01/24 02:26:16;;;;;;;15.30;7.60;;;;;;;-0.34;100.00;102755.25;109331;1253;75083;-89
2023/01/24 02:29:09;;;;;;;16.50;7.60;;;;;;;-0.38;100.00;102755.48;109373;1253;69674;-91
2023/01/24 02:32:02;;;;;;;15.90;7.50;;;;;;;-0.43;100.00;102758.15;109239;1252;72604;-90
2023/01/24 02:34:52;;;;;;;16.00;7.80;;;;;;;-0.52;100.00;102754.92;109157;1251;59460;-92
2023/01/24 02:37:42;;;;;;;20.40;7.40;;;;;;;-0.54;100.00;102753.63;109370;1252;60631;-89
2023/01/24 02:40:30;;;;;;;13.00;6.90;;;;;;;-0.41;100.00;102759.72;109568;1251;75069;-89
2023/01/24 02:43:19;;;;;;;18.40;6.40;;;;;;;-0.51;100.00;102761.19;109425;1251;69763;-90
2023/01/24 02:46:08;;;;;;;21.80;8.60;;;;;;;-0.51;100.00;102756.55;109229;1251;73856;-90
2023/01/24 02:48:57;;;;;;;15.90;6.60;;;;;;;-0.38;100.00;102756.34;109278;1253;59042;-91
2023/01/24 02:54:53;;;;;;;24.00;9.40;;;;;;;-0.38;100.00;102752.05;109297;1253;72248;-91
2023/01/24 03:00:50;;;;;;;28.50;9.40;;;;;;;-0.36;100.00;102747.74;109321;1251;73821;-90
2023/01/24 03:03:39;;;;;;;23.30;9.30;;;;;;;-0.34;100.00;102748.11;109289;1252;62062;-90
2023/01/24 03:06:28;;;;;;;18.90;7.60;;;;;;;-0.27;100.00;102747.61;109137;1252;61505;-90
2023/01/24 03:09:33;;;;;;;20.60;8.60;;;;;;;-0.26;100.00;102742.25;109132;1256;74330;-90
2023/01/24 03:34:32;;;;;;;17.00;7.80;;;;;;;-0.14;100.00;102753.45;109181;1252;60272;-89
2023/01/24 03:39:53;;;;;;;19.00;7.20;;;;;;;-0.10;100.00;102747.55;109245;1254;59710;-89
2023/01/24 03:40:33;;;;;;;16.20;7.00;;;;;;;-0.07;100.00;102744.88;109203;1253;74786;-90
2023/01/24 03:43:22;;;;;;;19.20;8.20;;;;;;;-0.07;100.00;102748.48;109194;1253;69293;-90
2023/01/24 03:46:11;;;;;;;19.60;8.20;;;;;;;-0.12;100.00;102743.61;109288;1253;72033;-89
2023/01/24 03:49:18;;;;;;;19.90;7.20;;;;;;;-0.17;100.00;102743.36;109370;1254;59353;-90
2023/01/24 03:55:14;;;;;;;26.70;8.80;;;;;;;-0.17;100.00;102749.30;109358;1252;74115;-90
2023/01/24 03:58:04;;;;;;;31.80;12.30;;;;;;;-0.16;100.00;102751.48;109227;1252;69125;-90
2023/01/24 04:00:53;;;;;;;19.20;8.80;;;;;;;-0.16;100.00;102755.50;108993;1253;73187;-90
2023/01/24 06:07:36;;;;;;;31.20;11.00;;;;;;;-2.49;100.00;102796.83;105876;1288;600997;-90
2023/01/24 06:10:25;;;;;;;34.90;15.60;;;;;;;-2.25;100.00;102802.00;108653;1260;60881;-90
2023/01/24 06:13:22;;;;;;;51.40;21.20;;;;;;;-2.06;100.00;102801.90;108679;1261;60642;-87
2023/01/24 06:16:13;;;;;;;26.70;11.40;;;;;;;-1.97;100.00;102796.24;108848;1260;73350;-89
2023/01/24 06:19:02;;;;;;;23.80;10.70;;;;;;;-1.90;100.00;102795.20;108762;1261;69959;-90
2023/01/24 06:21:55;;;;;;;17.00;8.70;;;;;;;-1.79;100.00;102794.06;108706;1257;177632;-88
2023/01/24 06:24:44;;;;;;;19.60;8.80;;;;;;;-1.63;100.00;102791.23;108832;1257;60247;-88
2023/01/24 06:27:54;;;;;;;17.80;7.60;;;;;;;-1.50;100.00;102794.02;108878;1259;60771;-91
2023/01/24 06:30:43;;;;;;;20.80;9.50;;;;;;;-1.44;100.00;102797.75;108830;1257;73257;-90
2023/01/24 06:33:47;;;;;;;17.70;6.20;;;;;;;-1.37;100.00;102791.10;108841;1260;72064;-89
2023/01/24 06:37:13;;;;;;;20.60;8.10;;;;;;;-1.30;100.00;102797.97;108864;1257;74211;-90
2023/01/24 06:40:04;;;;;;;20.50;8.80;;;;;;;-1.22;100.00;102795.61;109049;1257;59232;-88
2023/01/24 06:42:53;;;;;;;20.00;8.60;;;;;;;-1.19;100.00;102793.87;108907;1257;61458;-88
2023/01/24 06:45:42;;;;;;;30.70;13.60;;;;;;;-1.14;100.00;102791.38;108784;1261;73910;-89
2023/01/24 06:48:30;;;;;;;107.00;35.50;;;;;;;-1.08;100.00;102793.35;108860;1261;68426;-89
2023/01/24 06:51:22;;;;;;;51.10;20.10;;;;;;;-1.05;100.00;102792.00;108894;1257;72661;-90
2023/01/24 06:54:11;;;;;;;26.30;12.00;;;;;;;-1.03;100.00;102793.77;109024;1257;59279;-90
2023/01/24 06:57:00;;;;;;;22.10;9.30;;;;;;;-0.99;100.00;102792.67;108843;1257;61842;-89
2023/01/24 06:59:50;;;;;;;27.90;11.00;;;;;;;-0.95;100.00;102791.41;108868;1260;74305;-90
2023/01/24 07:02:40;;;;;;;19.30;9.10;;;;;;;-0.91;100.00;102793.84;108926;1257;68669;-89
2023/01/24 07:05:29;;;;;;;22.00;8.90;;;;;;;-0.89;100.00;102789.70;108877;1258;70888;-89
2023/01/24 07:08:20;;;;;;;21.40;9.70;;;;;;;-0.85;100.00;102786.38;108828;1260;57656;-89
2023/01/24 07:11:09;;;;;;;17.50;8.50;;;;;;;-0.81;100.00;102795.70;108978;1257;59848;-89
2023/01/24 07:13:59;;;;;;;24.90;11.20;;;;;;;-0.80;100.00;102792.33;108944;1260;73279;-89
2023/01/24 07:16:49;;;;;;;26.70;9.90;;;;;;;-0.78;100.00;102794.98;108914;1258;69381;-89
2023/01/24 07:19:39;;;;;;;42.70;17.60;;;;;;;-0.73;100.00;102800.09;108870;1257;73813;-90
2023/01/24 07:22:28;;;;;;;24.30;10.30;;;;;;;-0.70;100.00;102794.61;108921;1258;61030;-90
2023/01/24 07:25:18;;;;;;;28.30;12.80;;;;;;;-0.67;100.00;102798.74;108856;1258;59767;-89
2023/01/24 07:28:07;;;;;;;19.90;8.70;;;;;;;-0.63;100.00;102803.20;108807;1257;73485;-89
2023/01/24 07:30:57;;;;;;;19.00;6.80;;;;;;;-0.64;100.00;102804.36;108844;1260;68516;-89
2023/01/24 07:33:45;;;;;;;25.90;9.10;;;;;;;-0.64;100.00;102804.73;108906;1257;73385;-90
2023/01/24 07:36:34;;;;;;;21.10;7.20;;;;;;;-0.61;100.00;102801.80;108861;1259;60029;-89
2023/01/24 07:39:23;;;;;;;17.20;7.80;;;;;;;-0.59;100.00;102800.35;108794;1259;60024;-89
2023/01/24 07:42:12;;;;;;;20.70;9.00;;;;;;;-0.57;100.00;102798.66;108880;1259;74249;-90
2023/01/24 07:45:01;;;;;;;17.80;7.30;;;;;;;-0.55;100.00;102801.52;108961;1257;68730;-90
2023/01/24 07:47:54;;;;;;;15.60;7.30;;;;;;;-0.51;100.00;102800.43;108957;1256;71390;-91
2023/01/24 07:50:46;;;;;;;31.30;10.80;;;;;;;-0.42;100.00;102805.30;108921;1257;59224;-89
2023/01/24 07:53:35;;;;;;;24.60;9.20;;;;;;;-0.38;100.00;102805.08;109013;1257;60442;-91
2023/01/24 07:56:24;;;;;;;22.50;7.80;;;;;;;-0.39;100.00;102805.27;108967;1257;72130;-88
2023/01/24 07:59:14;;;;;;;19.50;8.10;;;;;;;-0.40;100.00;102808.14;108915;1256;67561;-89
2023/01/24 08:02:02;;;;;;;19.60;8.10;;;;;;;-0.34;100.00;102807.92;108944;1257;73647;-90
2023/01/24 08:04:51;;;;;;;20.10;8.20;;;;;;;-0.31;100.00;102802.91;109029;1256;59515;-89
2023/01/24 08:07:40;;;;;;;17.50;7.30;;;;;;;-0.29;100.00;102807.59;108850;1257;61841;-90
2023/01/24 08:10:30;;;;;;;19.00;7.80;;;;;;;-0.27;100.00;102801.13;108846;1257;73264;-91
2023/01/24 08:13:19;;;;;;;23.70;8.80;;;;;;;-0.24;100.00;102809.45;108828;1257;68973;-90
2023/01/24 08:16:08;;;;;;;25.30;9.70;;;;;;;-0.26;100.00;102811.65;108916;1257;72442;-91
2023/01/24 08:18:57;;;;;;;20.90;8.20;;;;;;;-0.32;100.00;102815.43;108981;1256;59659;-90
2023/01/24 08:21:45;;;;;;;30.60;9.90;;;;;;;-0.31;100.00;102814.81;108857;1257;60130;-89
2023/01/24 08:24:36;;;;;;;21.50;8.40;;;;;;;-0.23;100.00;102812.42;108891;1256;71865;-90
2023/01/24 08:27:25;;;;;;;19.00;7.10;;;;;;;-0.21;100.00;102808.41;108947;1257;69969;-90
2023/01/24 08:30:15;;;;;;;16.40;7.40;;;;;;;-0.19;100.00;102810.98;108803;1257;72749;-89
2023/01/24 08:33:08;;;;;;;21.40;7.90;;;;;;;-0.09;100.00;102807.30;108946;1256;59013;-91
2023/01/24 08:35:58;;;;;;;28.00;9.90;;;;;;;-0.02;100.00;102807.84;108847;1256;61474;-90
2023/01/24 08:38:47;;;;;;;21.20;9.40;;;;;;;0.02;100.00;102807.30;108854;1256;73860;-90
2023/01/24 08:41:36;;;;;;;17.00;8.00;;;;;;;0.03;100.00;102808.30;108790;1257;70452;-90
2023/01/24 08:44:25;;;;;;;30.30;11.60;;;;;;;-0.00;100.00;102813.21;108951;1256;73863;-89
2023/01/24 08:47:14;;;;;;;18.40;8.20;;;;;;;-0.01;100.00;102812.16;108935;1256;59525;-89
2023/01/24 08:50:03;;;;;;;22.30;9.60;;;;;;;-0.07;100.00;102814.89;108985;1256;58542;-90
2023/01/24 08:52:55;;;;;;;17.00;8.10;;;;;;;-0.07;100.00;102813.17;108841;1255;72180;-90
2023/01/24 08:55:44;;;;;;;22.50;7.30;;;;;;;-0.08;100.00;102808.95;108818;1257;69201;-91
2023/01/24 08:58:35;;;;;;;16.20;7.40;;;;;;;-0.08;100.00;102804.63;108869;1257;73858;-90
2023/01/24 09:01:26;;;;;;;21.30;9.00;;;;;;;-0.04;100.00;102809.05;108832;1256;61252;-90
2023/01/24 09:04:15;;;;;;;23.30;9.00;;;;;;;0.09;100.00;102810.02;109003;1256;61859;-90
2023/01/24 09:07:04;;;;;;;20.80;9.00;;;;;;;0.14;100.00;102811.84;108976;1256;73272;-89
2023/01/24 09:09:53;;;;;;;22.30;8.90;;;;;;;0.12;100.00;102804.52;108987;1256;69000;-90
2023/01/24 09:12:42;;;;;;;21.20;8.50;;;;;;;0.16;100.00;102801.58;108808;1256;73321;-89
2023/01/24 09:15:30;;;;;;;18.10;7.60;;;;;;;0.16;100.00;102802.80;108963;1256;59598;-89
2023/01/24 09:18:19;;;;;;;23.90;8.10;;;;;;;0.14;100.00;102799.08;108973;1257;60606;-90
2023/01/24 09:21:08;;;;;;;14.90;7.60;;;;;;;0.15;100.00;102798.95;109054;1257;73648;-90
2023/01/24 09:23:57;;;;;;;20.00;8.00;;;;;;;0.20;100.00;102798.66;108800;1257;67728;-91
2023/01/24 09:26:47;;;;;;;16.80;6.70;;;;;;;0.10;100.00;102801.08;108917;1257;72788;-90
2023/01/24 09:29:36;;;;;;;19.60;7.40;;;;;;;0.08;100.00;102799.48;108965;1256;59919;-90
2023/01/24 09:32:26;;;;;;;16.90;6.80;;;;;;;0.12;100.00;102796.10;108847;1256;61406;-90
2023/01/24 09:35:15;;;;;;;20.40;8.50;;;;;;;0.13;100.00;102796.34;108940;1256;73701;-90
2023/01/24 09:38:05;;;;;;;21.50;8.60;;;;;;;0.17;100.00;102789.95;108848;1257;69682;-90
2023/01/24 09:41:04;;;;;;;20.90;8.20;;;;;;;0.19;100.00;102787.83;108852;1257;70303;-90
2023/01/24 09:43:59;;;;;;;21.70;8.50;;;;;;;0.23;100.00;102784.77;109075;1256;62145;-89
2023/01/24 09:46:51;;;;;;;17.80;8.00;;;;;;;0.21;100.00;102782.58;108817;1257;61505;-89
2023/01/24 09:49:47;;;;;;;20.90;9.60;;;;;;;0.21;100.00;102779.17;108874;1257;74311;-90
2023/01/24 09:52:39;;;;;;;18.20;7.10;;;;;;;0.25;100.00;102775.21;108862;1257;67918;-89
2023/01/24 09:55:32;;;;;;;17.60;6.90;;;;;;;0.27;100.00;102775.73;108788;1257;72606;-89
2023/01/24 09:58:33;;;;;;;;;;;;;;;0.32;100.00;102775.58;109025;1256;59140;-90
2023/01/24 14:08:08;;;;;;;27.90;10.40;;;;;;;-1.65;100.00;102696.48;106336;1283;602102;-94
2023/01/24 14:11:05;;;;;;;36.00;15.20;;;;;;;-1.39;100.00;102701.64;108500;1265;62332;-94
2023/01/24 14:13:55;;;;;;;36.40;14.50;;;;;;;-1.12;100.00;102704.27;108880;1259;60017;-93
2023/01/24 14:16:46;;;;;;;25.90;12.10;;;;;;;-1.01;100.00;102707.36;108785;1259;72510;-95
2023/01/24 14:19:36;;;;;;;24.50;11.30;;;;;;;-0.97;100.00;102707.68;108913;1257;69662;-93
2023/01/24 14:22:34;;;;;;;23.20;11.00;;;;;;;-0.84;100.00;102712.52;108742;1256;186658;-94
2023/01/24 14:25:37;;;;;;;22.40;10.60;;;;;;;-0.76;100.00;102712.98;109134;1256;61112;-93
2023/01/24 14:28:39;;;;;;;21.10;9.40;;;;;;;-0.71;100.00;102707.84;109060;1256;61365;-92
2023/01/24 14:31:37;;;;;;;24.30;10.40;;;;;;;-0.65;100.00;102710.32;109251;1253;73356;-93
2023/01/24 14:34:31;;;;;;;27.30;10.90;;;;;;;-0.61;100.00;102713.83;109371;1253;69795;-93
2023/01/24 14:37:18;;;;;;;24.90;9.30;;;;;;;-0.56;100.00;102714.42;109136;1252;72564;-94
2023/01/24 14:40:19;;;;;;;20.60;10.00;;;;;;;-0.55;100.00;102714.86;109314;1253;59667;-93
2023/01/24 14:43:09;;;;;;;19.60;9.20;;;;;;;-0.52;100.00;102713.66;109338;1253;60869;-91
2023/01/24 14:45:56;;;;;;;15.20;7.80;;;;;;;-0.46;100.00;102712.14;109242;1253;72571;-90
2023/01/24 14:48:47;;;;;;;19.80;9.10;;;;;;;-0.40;100.00;102713.45;109312;1253;68438;-92
2023/01/24 14:51:35;;;;;;;21.50;8.20;;;;;;;-0.37;100.00;102716.53;109386;1252;73663;-93
2023/01/24 14:54:23;;;;;;;21.10;8.10;;;;;;;-0.38;100.00;102714.46;109206;1253;57901;-93
2023/01/24 14:57:25;;;;;;;19.50;8.50;;;;;;;-0.38;100.00;102711.40;109224;1252;61166;-93
2023/01/24 15:00:16;;;;;;;23.90;9.60;;;;;;;-0.36;100.00;102711.44;109381;1253;74300;-94
2023/01/24 15:03:05;;;;;;;21.50;8.60;;;;;;;-0.34;100.00;102709.05;109271;1252;68465;-95
2023/01/24 15:05:57;;;;;;;24.60;9.20;;;;;;;-0.38;100.00;102710.04;109717;1253;72757;-93
2023/01/24 15:08:44;;;;;;;46.30;18.00;;;;;;;-0.40;100.00;102707.85;109522;1252;61091;-94
2023/01/24 15:11:35;;;;;;;23.10;11.80;;;;;;;-0.28;100.00;102707.77;109301;1253;61335;-94
2023/01/24 15:14:27;;;;;;;25.20;10.90;;;;;;;-0.25;100.00;102702.46;109242;1253;73246;-94
2023/01/24 15:17:21;;;;;;;27.60;13.40;;;;;;;-0.18;100.00;102706.23;109226;1254;68686;-93
2023/01/24 15:20:11;;;;;;;28.30;11.30;;;;;;;-0.08;100.00;102704.48;109363;1253;73212;-94
2023/01/24 15:23:00;;;;;;;31.30;12.50;;;;;;;-0.09;100.00;102706.95;109274;1252;61292;-93
2023/01/24 15:25:47;;;;;;;26.70;12.10;;;;;;;-0.12;100.00;102702.53;109250;1252;59461;-93
2023/01/24 15:28:50;;;;;;;21.40;10.10;;;;;;;-0.17;100.00;102702.88;109207;1252;74257;-92
2023/01/24 15:31:40;;;;;;;18.50;8.70;;;;;;;-0.16;100.00;102705.63;109252;1254;68746;-93
2023/01/24 15:34:32;;;;;;;21.10;9.20;;;;;;;-0.17;100.00;102702.71;108960;1253;73274;-93
2023/01/24 15:37:29;;;;;;;21.40;8.80;;;;;;;-0.14;100.00;102713.74;109289;1253;62211;-94
2023/01/24 15:40:18;;;;;;;19.60;9.60;;;;;;;-0.12;100.00;102710.42;109244;1254;60821;-94
2023/01/24 15:49:38;;;;;;;22.80;11.00;;;;;;;-0.09;100.00;102713.54;109221;1253;72193;-94
2023/01/24 15:52:27;;;;;;;27.50;10.30;;;;;;;-0.07;100.00;102712.27;109220;1252;60637;-93
2023/01/24 15:55:18;;;;;;;29.80;13.50;;;;;;;-0.06;100.00;102714.30;109199;1253;60304;-93
2023/01/24 15:58:09;;;;;;;31.20;13.90;;;;;;;-0.08;100.00;102716.81;109246;1252;73974;-93
2023/01/24 20:04:42;;;;;;;29.70;11.20;;;;;;;-1.93;100.00;102665.42;105725;1292;601380;-89
2023/01/24 20:07:40;;;;;;;39.20;15.50;;;;;;;-1.51;100.00;102672.42;108435;1266;62008;-89
2023/01/24 20:10:29;;;;;;;42.60;17.40;;;;;;;-1.31;100.00;102669.95;108391;1266;61268;-90
2023/01/24 20:13:21;;;;;;;47.90;19.10;;;;;;;-1.10;100.00;102670.33;108379;1266;72172;-91
2023/01/24 20:16:20;;;;;;;32.40;15.00;;;;;;;-0.89;100.00;102666.65;108409;1266;69681;-89
2023/01/24 20:19:09;;;;;;;27.30;11.80;;;;;;;-0.75;100.00;102664.89;108338;1266;186210;-90
2023/01/24 20:22:14;;;;;;;20.80;9.40;;;;;;;-0.41;100.00;102663.52;108451;1264;62244;-90
2023/01/24 20:25:03;;;;;;;26.20;11.20;;;;;;;-0.34;100.00;102662.33;108611;1265;61306;-90
2023/01/24 20:28:05;;;;;;;24.00;10.60;;;;;;;-0.35;100.00;102665.95;108564;1264;72099;-90
2023/01/24 20:30:57;;;;;;;22.80;11.30;;;;;;;-0.36;100.00;102668.45;108615;1264;70490;-90
2023/01/24 20:33:48;;;;;;;24.20;10.20;;;;;;;-0.33;100.00;102666.54;108426;1266;73281;-90
2023/01/24 20:36:37;;;;;;;21.70;10.10;;;;;;;-0.26;100.00;102667.42;109265;1253;60659;-90
2023/01/24 20:39:26;;;;;;;20.90;9.60;;;;;;;-0.19;100.00;102667.24;109283;1253;60692;-90
2023/01/24 20:42:15;;;;;;;22.90;10.50;;;;;;;-0.21;100.00;102664.37;109289;1253;73908;-90
2023/01/24 20:45:04;;;;;;;24.20;10.30;;;;;;;-0.21;100.00;102669.05;109253;1254;68783;-90
2023/01/24 20:47:53;;;;;;;20.10;10.10;;;;;;;-0.17;100.00;102666.90;109200;1254;72541;-90
2023/01/24 20:50:42;;;;;;;23.30;9.40;;;;;;;-0.13;100.00;102661.08;109089;1254;59281;-92
2023/01/24 20:53:31;;;;;;;23.60;9.90;;;;;;;0.03;100.00;102661.48;109310;1253;60372;-92
2023/01/24 20:56:23;;;;;;;22.20;10.40;;;;;;;0.14;100.00;102658.41;109267;1253;74586;-90
2023/01/24 20:59:12;;;;;;;22.30;9.50;;;;;;;0.03;100.00;102656.61;109347;1253;69126;-90
2023/01/24 21:02:01;;;;;;;22.50;10.00;;;;;;;0.10;100.00;102658.05;109273;1253;72998;-92
2023/01/24 21:04:52;;;;;;;25.50;9.90;;;;;;;0.12;100.00;102657.73;109259;1254;60735;-89
2023/01/24 21:07:42;;;;;;;23.30;9.70;;;;;;;0.10;100.00;102653.75;109316;1253;61302;-90
2023/01/24 21:10:31;;;;;;;22.80;10.10;;;;;;;0.11;100.00;102654.36;109290;1253;74369;-91
2023/01/24 21:13:22;;;;;;;22.00;9.30;;;;;;;0.16;100.00;102651.66;109209;1253;69700;-92
2023/01/24 21:16:29;;;;;;;25.50;10.00;;;;;;;0.07;100.00;102655.67;109293;1253;73983;-91
2023/01/24 21:19:18;;;;;;;20.00;9.60;;;;;;;0.17;100.00;102655.36;109240;1253;59877;-91
2023/01/24 21:22:09;;;;;;;20.00;8.70;;;;;;;0.19;100.00;102652.31;109265;1253;59115;-91
2023/01/24 21:24:58;;;;;;;20.90;9.10;;;;;;;0.18;100.00;102649.71;109265;1253;72857;-92
2023/01/24 21:27:52;;;;;;;23.40;10.30;;;;;;;0.20;100.00;102648.21;109325;1253;69653;-90
2023/01/24 21:30:41;;;;;;;22.00;10.00;;;;;;;0.24;100.00;102645.66;109073;1254;73717;-91
2023/01/24 21:33:35;;;;;;;18.80;8.80;;;;;;;0.21;100.00;102643.86;109323;1253;59725;-91
2023/01/24 21:36:24;;;;;;;19.20;9.30;;;;;;;0.20;100.00;102644.11;109232;1254;60361;-90
2023/01/24 21:39:14;;;;;;;23.30;9.60;;;;;;;0.17;100.00;102642.25;109253;1253;72100;-90
2023/01/24 21:42:04;;;;;;;24.80;10.40;;;;;;;0.24;100.00;102642.16;109262;1254;69614;-92
2023/01/24 21:44:55;;;;;;;21.10;10.00;;;;;;;0.26;100.00;102648.22;109022;1254;73904;-91
2023/01/24 21:47:47;;;;;;;20.30;9.30;;;;;;;0.18;100.00;102644.16;109255;1254;60914;-90
2023/01/24 21:50:36;;;;;;;24.40;10.10;;;;;;;0.19;100.00;102644.90;109282;1253;60318;-90
2023/01/24 21:59:46;;;;;;;26.60;10.90;;;;;;;0.14;100.00;102642.92;109245;1254;73554;-90
2023/01/24 22:02:35;;;;;;;27.80;11.30;;;;;;;0.12;100.00;102642.65;109241;1254;62033;-90
2023/01/24 22:05:25;;;;;;;25.10;11.30;;;;;;;0.07;100.00;102638.05;109171;1253;61457;-89
2023/01/24 22:08:14;;;;;;;29.10;10.50;;;;;;;0.05;100.00;102640.98;109283;1254;73761;-89
2023/01/24 22:11:04;;;;;;;27.20;10.30;;;;;;;0.10;100.00;102639.10;109307;1253;69704;-90
2023/01/24 22:13:53;;;;;;;24.10;10.80;;;;;;;0.18;100.00;102636.09;109345;1252;74211;-90
2023/01/24 22:16:42;;;;;;;24.10;10.80;;;;;;;0.18;100.00;102635.49;109426;1252;59732;-89
2023/01/24 22:19:39;;;;;;;22.20;10.20;;;;;;;0.24;100.00;102643.16;109373;1252;60480;-90
2023/01/24 22:22:37;;;;;;;22.70;11.20;;;;;;;0.26;100.00;102639.75;109392;1252;74013;-89
2023/01/24 22:25:38;;;;;;;26.30;11.10;;;;;;;0.31;100.00;102641.20;109391;1252;69456;-90
2023/01/24 22:28:28;;;;;;;27.80;11.80;;;;;;;0.15;100.00;102637.27;109184;1253;72819;-90
2023/01/24 22:31:17;;;;;;;26.50;10.90;;;;;;;0.11;100.00;102631.30;109235;1254;58417;-90
2023/01/24 22:34:11;;;;;;;27.30;10.50;;;;;;;0.04;100.00;102628.92;109210;1252;60124;-90
2023/01/24 22:37:24;;;;;;;22.90;11.00;;;;;;;0.10;100.00;102629.62;109188;1253;72811;-90
2023/01/24 22:40:18;;;;;;;25.50;10.20;;;;;;;0.14;100.00;102631.27;109373;1253;69508;-90
2023/01/24 22:43:08;;;;;;;21.00;9.20;;;;;;;0.05;100.00;102631.13;109330;1253;73474;-90
2023/01/24 22:45:57;;;;;;;27.70;11.10;;;;;;;-0.06;100.00;102631.69;109362;1252;61143;-89
2023/01/24 22:48:46;;;;;;;24.40;11.50;;;;;;;-0.09;100.00;102626.29;109356;1252;61309;-89
2023/01/24 22:51:34;;;;;;;31.40;10.70;;;;;;;-0.16;100.00;102625.59;109354;1254;73104;-90
2023/01/24 22:54:23;;;;;;;25.80;11.30;;;;;;;-0.11;100.00;102620.02;109325;1252;71205;-89
2023/01/24 22:57:12;;;;;;;25.40;10.90;;;;;;;-0.07;100.00;102619.95;109323;1252;72668;-89
2023/01/24 23:00:01;;;;;;;23.50;9.40;;;;;;;-0.10;100.00;102613.64;109292;1254;61951;-91
2023/01/24 23:02:53;;;;;;;21.40;9.90;;;;;;;-0.12;100.00;102613.19;109189;1254;60266;-90
2023/01/24 23:05:41;;;;;;;25.50;10.90;;;;;;;-0.15;100.00;102611.48;109303;1253;73043;-90
2023/01/24 23:08:32;;;;;;;24.40;11.50;;;;;;;-0.13;100.00;102607.88;109326;1252;68770;-90
2023/01/24 23:11:20;;;;;;;23.70;10.20;;;;;;;-0.12;100.00;102601.80;109357;1253;72325;-89
2023/01/24 23:17:21;;;;;;;27.40;11.30;;;;;;;-0.22;100.00;102601.65;109295;1253;61327;-90
2023/01/24 23:23:17;;;;;;;24.90;11.00;;;;;;;-0.17;100.00;102601.83;109321;1253;70180;-91
2023/01/24 23:26:06;;;;;;;27.00;10.20;;;;;;;-0.15;100.00;102598.95;109208;1253;74351;-90
2023/01/24 23:29:32;;;;;;;25.50;10.60;;;;;;;-0.13;100.00;102595.66;109380;1253;60077;-90
2023/01/24 23:32:30;;;;;;;25.60;11.10;;;;;;;-0.05;100.00;102596.27;109256;1254;60402;-90
2023/01/24 23:35:19;;;;;;;25.10;10.70;;;;;;;-0.04;100.00;102593.66;109188;1254;73044;-89
2023/01/24 23:38:07;;;;;;;22.60;10.20;;;;;;;-0.13;100.00;102590.80;109406;1254;69276;-90
2023/01/24 23:40:56;;;;;;;26.60;10.50;;;;;;;-0.14;100.00;102590.45;109191;1254;73703;-90
2023/01/24 23:43:47;;;;;;;25.40;10.90;;;;;;;-0.13;100.00;102589.80;109377;1253;62474;-89
2023/01/24 23:46:37;;;;;;;22.60;10.40;;;;;;;-0.07;100.00;102586.63;109253;1252;60097;-90
2023/01/24 23:49:25;;;;;;;23.80;10.60;;;;;;;-0.07;100.00;102589.82;109194;1252;72054;-90
2023/01/24 23:52:14;;;;;;;28.10;10.80;;;;;;;-0.07;100.00;102593.07;109283;1253;68858;-91
2023/01/24 23:55:03;;;;;;;21.20;10.20;;;;;;;-0.06;100.00;102591.06;109286;1253;73539;-91
2023/01/24 23:57:52;;;;;;;25.90;10.80;;;;;;;-0.02;100.00;102586.32;109239;1253;59651;-91
